Elk Creek, NY

5:35 PM EST on March 03, 2015 (GMT -0500)
Worcester Farm | Change Station
CLOSE
Current Station
Personal Weather Station
Location: Worcester, NY
Elevation: 1759 ft
Nearby Weather Stations

Elev 1759 ft 42.62 °N, 74.75 °W | Updated 13 minutes ago

Snow
Snow
21.1 °F
Feels Like 9 °F
N
12.0
Wind Variable Wind from SW
Gusts 14.0 mph

Today
High -- | Low -- °F
--% Chance of Precip.
Yesterday
High -- | Low -- °F
Precip. -- in
6:32 AM 5:51 PM
Waxing Gibbous, 97% visible
Pressure 30.02 in
Visibility 2.0 miles
Clouds Mostly Cloudy 1900 ft
Overcast 2300 ft
Windchill 9 °F
Dew Point 19 °F
Humidity 90%
Rainfall 0.00 in
Snow Depth Not available.
UV 0 out of 12
Pollen .40 out of 12
PM2.5 Good
Flu Activity Widespread
METAR KSCH 032159Z 15007KT 2SM -SN BKN019 OVC023 M04/M07 A3002

More Conditions Fewer Conditions

Pressure 30.02 in
Visibility 2.0 miles
Clouds Mostly Cloudy 1900 ft
Overcast 2300 ft
Windchill 9 °F
Dew Point 19 °F
Humidity 90%
Rainfall 0.00 in
Snow Depth Not available.
UV 0 out of 12
Pollen .40 out of 12
PM2.5 Good
Flu Activity Widespread
METAR KSCH 032159Z 15007KT 2SM -SN BKN019 OVC023 M04/M07 A3002

More Conditions Fewer Conditions

10-Day Weather Forecast

Almanac

Astronomy

Mar. 03, 2015 Rise Set
Actual Time 6:32 AM EST 5:51 PM EST
Civil Twilight 6:03 AM EST 6:19 PM EST
Nautical Twilight 5:31 AM EST 6:51 PM EST
Astronomical Twilight 4:58 AM EST 7:24 PM EST
Moon 4:11 PM EST 5:12 AM EST
Length of Visible Light 12h 15m
Length of Day
11h 19m
Tomorrow will be 2m 53s longer.
Waxing Gibbous, 97% of the Moon is Illuminated
Today
Waxing Gibbous
Mar 5
Full
Mar 13
Last Quarter
Mar 20
New
Mar 27
First Quarter

Today's Extremes

State Highs State Lows

Community

WunderPhotos

Upload Photos

1,802,297 photos uploaded!

Nearby

Air Quality

  Air Quality AQ Index Pollutant
Yesterday Moderate
PM2.5
Yesterday Good
OZONE
Current Good
PM2.5
Tuesday Good
PM2.5
Wednesday Good
PM2.5

Snow Depth

Station Depth Elevation
No new snow has been reported.

Earthquake Activity

City Distance Mag. Time & Date
No recent earthquake activity has been reported nearby.
Minimum magnitude displayed is 2.5.

Coastal Water Temperatures

Place Temperature
No Stations Reporting

Nearby Weather Stations